sensor_id;sensor_type;location;lat;lon;timestamp;P1;durP1;ratioP1;P2;durP2;ratioP2
80891;SDS011;70343;51.530;5.050;2024-03-06T00:02:18;29.73;;;17.73;;
80891;SDS011;70343;51.530;5.050;2024-03-06T00:04:45;29.05;;;16.83;;
80891;SDS011;70343;51.530;5.050;2024-03-06T00:07:11;31.23;;;17.25;;
80891;SDS011;70343;51.530;5.050;2024-03-06T00:09:36;29.85;;;17.08;;
80891;SDS011;70343;51.530;5.050;2024-03-06T00:12:02;32.55;;;16.83;;
80891;SDS011;70343;51.530;5.050;2024-03-06T00:14:27;28.98;;;16.38;;
80891;SDS011;70343;51.530;5.050;2024-03-06T00:16:53;27.35;;;16.15;;
80891;SDS011;70343;51.530;5.050;2024-03-06T00:19:20;30.45;;;16.45;;
80891;SDS011;70343;51.530;5.050;2024-03-06T00:21:46;31.35;;;17.50;;
80891;SDS011;70343;51.530;5.050;2024-03-06T00:24:12;24.35;;;14.73;;
80891;SDS011;70343;51.530;5.050;2024-03-06T00:26:42;29.50;;;15.98;;
80891;SDS011;70343;51.530;5.050;2024-03-06T00:29:09;27.45;;;15.48;;
80891;SDS011;70343;51.530;5.050;2024-03-06T00:31:35;24.80;;;15.05;;
80891;SDS011;70343;51.530;5.050;2024-03-06T00:34:00;28.83;;;16.10;;
80891;SDS011;70343;51.530;5.050;2024-03-06T00:36:26;29.77;;;15.93;;
80891;SDS011;70343;51.530;5.050;2024-03-06T00:38:51;26.63;;;16.35;;
80891;SDS011;70343;51.530;5.050;2024-03-06T00:41:17;23.27;;;15.05;;
80891;SDS011;70343;51.530;5.050;2024-03-06T00:43:43;29.40;;;16.52;;
80891;SDS011;70343;51.530;5.050;2024-03-06T00:46:08;24.10;;;14.05;;
80891;SDS011;70343;51.530;5.050;2024-03-06T00:48:34;27.30;;;15.57;;
80891;SDS011;70343;51.530;5.050;2024-03-06T00:50:59;26.77;;;15.25;;
80891;SDS011;70343;51.530;5.050;2024-03-06T00:53:25;26.85;;;16.27;;
80891;SDS011;70343;51.530;5.050;2024-03-06T00:55:50;25.50;;;16.00;;
80891;SDS011;70343;51.530;5.050;2024-03-06T00:58:16;22.67;;;14.25;;
80891;SDS011;70343;51.530;5.050;2024-03-06T01:00:41;25.77;;;15.43;;
80891;SDS011;70343;51.530;5.050;2024-03-06T01:03:06;23.55;;;14.35;;
80891;SDS011;70343;51.530;5.050;2024-03-06T01:05:32;24.25;;;14.65;;
80891;SDS011;70343;51.530;5.050;2024-03-06T01:07:58;29.20;;;15.40;;
80891;SDS011;70343;51.530;5.050;2024-03-06T01:10:24;25.92;;;15.93;;
80891;SDS011;70343;51.530;5.050;2024-03-06T01:12:50;26.58;;;15.98;;
80891;SDS011;70343;51.530;5.050;2024-03-06T01:15:16;29.80;;;15.65;;
80891;SDS011;70343;51.530;5.050;2024-03-06T01:17:41;24.50;;;14.45;;
80891;SDS011;70343;51.530;5.050;2024-03-06T01:20:07;25.85;;;14.38;;
80891;SDS011;70343;51.530;5.050;2024-03-06T01:22:34;26.02;;;14.70;;
80891;SDS011;70343;51.530;5.050;2024-03-06T01:24:59;26.10;;;14.10;;
80891;SDS011;70343;51.530;5.050;2024-03-06T01:27:25;28.25;;;15.52;;
80891;SDS011;70343;51.530;5.050;2024-03-06T01:29:51;23.50;;;15.00;;
80891;SDS011;70343;51.530;5.050;2024-03-06T01:32:17;25.20;;;14.55;;
80891;SDS011;70343;51.530;5.050;2024-03-06T01:34:42;26.05;;;15.07;;
80891;SDS011;70343;51.530;5.050;2024-03-06T01:37:08;22.95;;;14.55;;
80891;SDS011;70343;51.530;5.050;2024-03-06T01:39:34;24.75;;;14.80;;
80891;SDS011;70343;51.530;5.050;2024-03-06T01:42:00;23.70;;;14.93;;
80891;SDS011;70343;51.530;5.050;2024-03-06T01:44:26;22.45;;;13.77;;
80891;SDS011;70343;51.530;5.050;2024-03-06T01:46:52;24.58;;;15.18;;
80891;SDS011;70343;51.530;5.050;2024-03-06T01:49:18;23.48;;;14.95;;
80891;SDS011;70343;51.530;5.050;2024-03-06T01:51:47;23.23;;;14.88;;
80891;SDS011;70343;51.530;5.050;2024-03-06T01:54:16;22.00;;;13.88;;
80891;SDS011;70343;51.530;5.050;2024-03-06T01:56:46;25.30;;;14.95;;
80891;SDS011;70343;51.530;5.050;2024-03-06T01:59:13;23.67;;;14.27;;
80891;SDS011;70343;51.530;5.050;2024-03-06T02:01:40;27.05;;;14.90;;
80891;SDS011;70343;51.530;5.050;2024-03-06T02:04:06;22.77;;;13.25;;
80891;SDS011;70343;51.530;5.050;2024-03-06T02:06:38;21.33;;;13.38;;
80891;SDS011;70343;51.530;5.050;2024-03-06T02:09:04;24.67;;;14.15;;
80891;SDS011;70343;51.530;5.050;2024-03-06T02:11:29;22.67;;;13.63;;
80891;SDS011;70343;51.530;5.050;2024-03-06T02:13:55;24.35;;;13.60;;
80891;SDS011;70343;51.530;5.050;2024-03-06T02:16:21;24.08;;;14.35;;
80891;SDS011;70343;51.530;5.050;2024-03-06T02:18:56;24.02;;;14.05;;
80891;SDS011;70343;51.530;5.050;2024-03-06T02:21:22;19.55;;;12.80;;
80891;SDS011;70343;51.530;5.050;2024-03-06T02:23:49;27.08;;;14.02;;
80891;SDS011;70343;51.530;5.050;2024-03-06T02:26:19;22.58;;;13.40;;
80891;SDS011;70343;51.530;5.050;2024-03-06T02:31:15;23.95;;;13.80;;
80891;SDS011;70343;51.530;5.050;2024-03-06T02:33:42;21.95;;;13.63;;
80891;SDS011;70343;51.530;5.050;2024-03-06T02:36:09;25.42;;;14.40;;
80891;SDS011;70343;51.530;5.050;2024-03-06T02:38:36;24.90;;;15.40;;
80891;SDS011;70343;51.530;5.050;2024-03-06T02:41:01;25.05;;;13.55;;
80891;SDS011;70343;51.530;5.050;2024-03-06T02:43:27;27.55;;;14.68;;
80891;SDS011;70343;51.530;5.050;2024-03-06T02:45:53;22.17;;;14.10;;
80891;SDS011;70343;51.530;5.050;2024-03-06T02:48:18;19.55;;;13.20;;
80891;SDS011;70343;51.530;5.050;2024-03-06T02:50:44;25.48;;;13.23;;
80891;SDS011;70343;51.530;5.050;2024-03-06T02:53:10;25.38;;;14.27;;
80891;SDS011;70343;51.530;5.050;2024-03-06T02:55:35;24.90;;;14.43;;
80891;SDS011;70343;51.530;5.050;2024-03-06T02:58:01;23.92;;;13.20;;
80891;SDS011;70343;51.530;5.050;2024-03-06T03:00:27;21.55;;;13.10;;
80891;SDS011;70343;51.530;5.050;2024-03-06T03:02:53;25.13;;;14.45;;
80891;SDS011;70343;51.530;5.050;2024-03-06T03:05:18;25.20;;;14.88;;
80891;SDS011;70343;51.530;5.050;2024-03-06T03:07:44;25.42;;;13.48;;
80891;SDS011;70343;51.530;5.050;2024-03-06T03:10:10;23.10;;;13.18;;
80891;SDS011;70343;51.530;5.050;2024-03-06T03:12:35;27.80;;;14.70;;
80891;SDS011;70343;51.530;5.050;2024-03-06T03:15:03;22.75;;;13.50;;
80891;SDS011;70343;51.530;5.050;2024-03-06T03:17:29;21.75;;;13.15;;
80891;SDS011;70343;51.530;5.050;2024-03-06T03:19:55;22.77;;;14.00;;
80891;SDS011;70343;51.530;5.050;2024-03-06T03:22:20;21.52;;;13.80;;
80891;SDS011;70343;51.530;5.050;2024-03-06T03:24:46;24.35;;;14.50;;
80891;SDS011;70343;51.530;5.050;2024-03-06T03:27:12;23.10;;;14.40;;
80891;SDS011;70343;51.530;5.050;2024-03-06T03:29:38;22.45;;;13.80;;
80891;SDS011;70343;51.530;5.050;2024-03-06T03:32:03;21.67;;;12.85;;
80891;SDS011;70343;51.530;5.050;2024-03-06T03:34:29;23.55;;;14.63;;
80891;SDS011;70343;51.530;5.050;2024-03-06T03:36:55;20.77;;;12.65;;
80891;SDS011;70343;51.530;5.050;2024-03-06T03:39:21;20.15;;;13.75;;
80891;SDS011;70343;51.530;5.050;2024-03-06T03:41:49;22.55;;;13.57;;
80891;SDS011;70343;51.530;5.050;2024-03-06T03:44:15;22.77;;;12.93;;
80891;SDS011;70343;51.530;5.050;2024-03-06T03:46:42;20.80;;;12.38;;
80891;SDS011;70343;51.530;5.050;2024-03-06T03:49:08;24.73;;;13.15;;
80891;SDS011;70343;51.530;5.050;2024-03-06T03:51:37;23.75;;;13.43;;
80891;SDS011;70343;51.530;5.050;2024-03-06T03:54:03;23.10;;;14.07;;
80891;SDS011;70343;51.530;5.050;2024-03-06T03:56:29;23.15;;;13.15;;
80891;SDS011;70343;51.530;5.050;2024-03-06T03:58:56;21.42;;;13.07;;
80891;SDS011;70343;51.530;5.050;2024-03-06T04:01:22;22.20;;;13.77;;
80891;SDS011;70343;51.530;5.050;2024-03-06T04:03:48;23.17;;;13.20;;
80891;SDS011;70343;51.530;5.050;2024-03-06T04:06:13;20.92;;;13.15;;
80891;SDS011;70343;51.530;5.050;2024-03-06T04:08:39;22.65;;;13.38;;
80891;SDS011;70343;51.530;5.050;2024-03-06T04:11:05;22.40;;;13.77;;
80891;SDS011;70343;51.530;5.050;2024-03-06T04:13:30;22.42;;;14.30;;
80891;SDS011;70343;51.530;5.050;2024-03-06T04:16:01;23.35;;;13.10;;
80891;SDS011;70343;51.530;5.050;2024-03-06T04:18:27;25.75;;;14.80;;
80891;SDS011;70343;51.530;5.050;2024-03-06T04:20:53;23.73;;;14.07;;
80891;SDS011;70343;51.530;5.050;2024-03-06T04:23:19;32.00;;;14.27;;
80891;SDS011;70343;51.530;5.050;2024-03-06T04:25:44;27.42;;;15.07;;
80891;SDS011;70343;51.530;5.050;2024-03-06T04:28:10;21.45;;;13.52;;
80891;SDS011;70343;51.530;5.050;2024-03-06T04:30:35;23.42;;;14.18;;
80891;SDS011;70343;51.530;5.050;2024-03-06T04:33:01;43.63;;;16.10;;
80891;SDS011;70343;51.530;5.050;2024-03-06T04:35:27;29.48;;;14.95;;
80891;SDS011;70343;51.530;5.050;2024-03-06T04:37:52;28.73;;;15.48;;
80891;SDS011;70343;51.530;5.050;2024-03-06T04:40:17;27.50;;;14.73;;
80891;SDS011;70343;51.530;5.050;2024-03-06T04:42:45;25.45;;;14.48;;
80891;SDS011;70343;51.530;5.050;2024-03-06T04:45:14;26.70;;;13.98;;
80891;SDS011;70343;51.530;5.050;2024-03-06T04:47:40;22.25;;;13.95;;
80891;SDS011;70343;51.530;5.050;2024-03-06T04:50:09;26.77;;;14.45;;
80891;SDS011;70343;51.530;5.050;2024-03-06T04:52:36;27.80;;;13.18;;
80891;SDS011;70343;51.530;5.050;2024-03-06T04:55:02;25.98;;;13.95;;
80891;SDS011;70343;51.530;5.050;2024-03-06T04:57:28;40.75;;;14.57;;
80891;SDS011;70343;51.530;5.050;2024-03-06T04:59:54;37.75;;;16.58;;
80891;SDS011;70343;51.530;5.050;2024-03-06T05:02:19;38.65;;;14.88;;
80891;SDS011;70343;51.530;5.050;2024-03-06T05:04:45;39.35;;;14.40;;
80891;SDS011;70343;51.530;5.050;2024-03-06T05:07:12;34.63;;;13.95;;
80891;SDS011;70343;51.530;5.050;2024-03-06T05:09:38;25.83;;;12.80;;
80891;SDS011;70343;51.530;5.050;2024-03-06T05:12:06;27.83;;;13.10;;
80891;SDS011;70343;51.530;5.050;2024-03-06T05:14:32;38.53;;;13.02;;
80891;SDS011;70343;51.530;5.050;2024-03-06T05:16:58;43.28;;;12.70;;
80891;SDS011;70343;51.530;5.050;2024-03-06T05:19:23;29.67;;;13.40;;
80891;SDS011;70343;51.530;5.050;2024-03-06T05:21:55;18.85;;;10.82;;
80891;SDS011;70343;51.530;5.050;2024-03-06T05:24:21;19.17;;;11.70;;
80891;SDS011;70343;51.530;5.050;2024-03-06T05:26:46;17.42;;;11.07;;
80891;SDS011;70343;51.530;5.050;2024-03-06T05:29:12;16.80;;;10.68;;
80891;SDS011;70343;51.530;5.050;2024-03-06T05:31:37;16.42;;;10.93;;
80891;SDS011;70343;51.530;5.050;2024-03-06T05:34:03;21.30;;;10.77;;
80891;SDS011;70343;51.530;5.050;2024-03-06T05:36:30;14.60;;;10.40;;
80891;SDS011;70343;51.530;5.050;2024-03-06T05:38:56;18.08;;;9.88;;
80891;SDS011;70343;51.530;5.050;2024-03-06T05:41:21;18.88;;;10.57;;
80891;SDS011;70343;51.530;5.050;2024-03-06T05:43:46;16.02;;;10.00;;
80891;SDS011;70343;51.530;5.050;2024-03-06T05:46:12;14.43;;;10.23;;
80891;SDS011;70343;51.530;5.050;2024-03-06T05:48:38;14.82;;;10.15;;
80891;SDS011;70343;51.530;5.050;2024-03-06T05:51:04;14.15;;;9.57;;
80891;SDS011;70343;51.530;5.050;2024-03-06T05:53:30;13.20;;;9.63;;
80891;SDS011;70343;51.530;5.050;2024-03-06T05:56:01;19.55;;;10.65;;
80891;SDS011;70343;51.530;5.050;2024-03-06T05:58:28;14.50;;;9.15;;
80891;SDS011;70343;51.530;5.050;2024-03-06T06:00:54;15.32;;;9.60;;
80891;SDS011;70343;51.530;5.050;2024-03-06T06:03:19;16.02;;;9.77;;
80891;SDS011;70343;51.530;5.050;2024-03-06T06:05:45;14.90;;;9.23;;
80891;SDS011;70343;51.530;5.050;2024-03-06T06:08:11;15.05;;;9.88;;
80891;SDS011;70343;51.530;5.050;2024-03-06T06:10:36;11.98;;;9.48;;
80891;SDS011;70343;51.530;5.050;2024-03-06T06:13:02;16.55;;;9.38;;
80891;SDS011;70343;51.530;5.050;2024-03-06T06:15:29;16.75;;;10.13;;
80891;SDS011;70343;51.530;5.050;2024-03-06T06:17:55;15.05;;;10.85;;
80891;SDS011;70343;51.530;5.050;2024-03-06T06:20:21;14.85;;;9.82;;
80891;SDS011;70343;51.530;5.050;2024-03-06T06:22:47;15.15;;;10.25;;
80891;SDS011;70343;51.530;5.050;2024-03-06T06:25:12;16.17;;;9.35;;
80891;SDS011;70343;51.530;5.050;2024-03-06T06:27:38;13.10;;;9.07;;
80891;SDS011;70343;51.530;5.050;2024-03-06T06:30:04;15.02;;;10.32;;
80891;SDS011;70343;51.530;5.050;2024-03-06T06:32:30;13.25;;;9.45;;
80891;SDS011;70343;51.530;5.050;2024-03-06T06:34:55;12.85;;;9.88;;
80891;SDS011;70343;51.530;5.050;2024-03-06T06:37:21;14.52;;;9.00;;
80891;SDS011;70343;51.530;5.050;2024-03-06T06:39:47;13.60;;;8.88;;
80891;SDS011;70343;51.530;5.050;2024-03-06T06:42:13;10.73;;;8.55;;
80891;SDS011;70343;51.530;5.050;2024-03-06T06:44:39;14.57;;;9.80;;
80891;SDS011;70343;51.530;5.050;2024-03-06T06:47:04;14.30;;;8.80;;
80891;SDS011;70343;51.530;5.050;2024-03-06T06:49:30;13.93;;;9.20;;
80891;SDS011;70343;51.530;5.050;2024-03-06T06:51:55;17.52;;;10.90;;
80891;SDS011;70343;51.530;5.050;2024-03-06T06:54:20;12.52;;;8.40;;
80891;SDS011;70343;51.530;5.050;2024-03-06T06:56:46;17.42;;;10.18;;
80891;SDS011;70343;51.530;5.050;2024-03-06T06:59:12;16.63;;;9.85;;
80891;SDS011;70343;51.530;5.050;2024-03-06T07:01:38;14.88;;;9.18;;
80891;SDS011;70343;51.530;5.050;2024-03-06T07:04:05;16.13;;;9.38;;
80891;SDS011;70343;51.530;5.050;2024-03-06T07:06:31;14.80;;;8.80;;
80891;SDS011;70343;51.530;5.050;2024-03-06T07:08:57;12.63;;;8.30;;
80891;SDS011;70343;51.530;5.050;2024-03-06T07:11:22;13.90;;;10.18;;
80891;SDS011;70343;51.530;5.050;2024-03-06T07:13:49;15.13;;;9.55;;
80891;SDS011;70343;51.530;5.050;2024-03-06T07:16:14;11.98;;;9.02;;
80891;SDS011;70343;51.530;5.050;2024-03-06T07:18:40;13.10;;;9.40;;
80891;SDS011;70343;51.530;5.050;2024-03-06T07:21:05;13.18;;;8.73;;
80891;SDS011;70343;51.530;5.050;2024-03-06T07:23:31;17.15;;;10.35;;
80891;SDS011;70343;51.530;5.050;2024-03-06T07:25:56;12.23;;;8.57;;
80891;SDS011;70343;51.530;5.050;2024-03-06T07:28:24;12.88;;;9.32;;
80891;SDS011;70343;51.530;5.050;2024-03-06T07:30:50;13.00;;;9.43;;
80891;SDS011;70343;51.530;5.050;2024-03-06T07:33:16;16.27;;;9.68;;
80891;SDS011;70343;51.530;5.050;2024-03-06T07:35:42;14.40;;;9.43;;
80891;SDS011;70343;51.530;5.050;2024-03-06T07:38:07;13.23;;;9.48;;
80891;SDS011;70343;51.530;5.050;2024-03-06T07:40:33;14.10;;;9.77;;
80891;SDS011;70343;51.530;5.050;2024-03-06T07:42:59;11.40;;;8.00;;
80891;SDS011;70343;51.530;5.050;2024-03-06T07:45:25;13.40;;;8.57;;
80891;SDS011;70343;51.530;5.050;2024-03-06T07:47:51;11.70;;;8.25;;
80891;SDS011;70343;51.530;5.050;2024-03-06T07:50:17;13.73;;;9.95;;
80891;SDS011;70343;51.530;5.050;2024-03-06T07:52:45;13.88;;;10.10;;
80891;SDS011;70343;51.530;5.050;2024-03-06T07:55:11;14.48;;;9.85;;
80891;SDS011;70343;51.530;5.050;2024-03-06T07:57:37;12.75;;;10.50;;
80891;SDS011;70343;51.530;5.050;2024-03-06T08:00:03;13.88;;;9.43;;
80891;SDS011;70343;51.530;5.050;2024-03-06T08:02:39;15.07;;;9.82;;
80891;SDS011;70343;51.530;5.050;2024-03-06T08:05:09;13.48;;;9.65;;
80891;SDS011;70343;51.530;5.050;2024-03-06T08:07:37;12.90;;;9.10;;
80891;SDS011;70343;51.530;5.050;2024-03-06T08:10:07;12.55;;;9.10;;
80891;SDS011;70343;51.530;5.050;2024-03-06T08:12:34;14.57;;;9.13;;
80891;SDS011;70343;51.530;5.050;2024-03-06T08:15:00;15.60;;;8.68;;
80891;SDS011;70343;51.530;5.050;2024-03-06T08:17:27;12.68;;;9.10;;
80891;SDS011;70343;51.530;5.050;2024-03-06T08:19:53;12.80;;;9.13;;
80891;SDS011;70343;51.530;5.050;2024-03-06T08:22:18;13.70;;;9.95;;
80891;SDS011;70343;51.530;5.050;2024-03-06T08:24:44;13.30;;;9.10;;
80891;SDS011;70343;51.530;5.050;2024-03-06T08:27:09;14.05;;;9.55;;
80891;SDS011;70343;51.530;5.050;2024-03-06T08:29:35;14.52;;;8.48;;
80891;SDS011;70343;51.530;5.050;2024-03-06T08:32:00;11.18;;;8.50;;
80891;SDS011;70343;51.530;5.050;2024-03-06T08:34:26;15.70;;;9.40;;
80891;SDS011;70343;51.530;5.050;2024-03-06T08:36:52;14.65;;;10.27;;
80891;SDS011;70343;51.530;5.050;2024-03-06T08:39:18;15.27;;;9.55;;
80891;SDS011;70343;51.530;5.050;2024-03-06T08:41:44;15.00;;;9.07;;
80891;SDS011;70343;51.530;5.050;2024-03-06T08:44:09;13.25;;;9.48;;
80891;SDS011;70343;51.530;5.050;2024-03-06T08:46:35;14.05;;;10.20;;
80891;SDS011;70343;51.530;5.050;2024-03-06T08:49:00;20.10;;;9.57;;
80891;SDS011;70343;51.530;5.050;2024-03-06T08:51:26;15.48;;;9.98;;
80891;SDS011;70343;51.530;5.050;2024-03-06T08:53:52;13.38;;;9.45;;
80891;SDS011;70343;51.530;5.050;2024-03-06T08:56:17;16.27;;;10.05;;
80891;SDS011;70343;51.530;5.050;2024-03-06T08:58:43;16.23;;;9.65;;
80891;SDS011;70343;51.530;5.050;2024-03-06T09:01:09;14.02;;;10.07;;
80891;SDS011;70343;51.530;5.050;2024-03-06T09:03:34;13.38;;;8.52;;
80891;SDS011;70343;51.530;5.050;2024-03-06T09:06:00;14.15;;;9.18;;
80891;SDS011;70343;51.530;5.050;2024-03-06T09:08:28;13.32;;;9.88;;
80891;SDS011;70343;51.530;5.050;2024-03-06T09:10:53;15.55;;;9.20;;
80891;SDS011;70343;51.530;5.050;2024-03-06T09:13:19;11.68;;;8.43;;
80891;SDS011;70343;51.530;5.050;2024-03-06T09:15:44;11.07;;;8.35;;
80891;SDS011;70343;51.530;5.050;2024-03-06T09:18:10;14.23;;;8.13;;
80891;SDS011;70343;51.530;5.050;2024-03-06T09:20:35;13.15;;;8.75;;
80891;SDS011;70343;51.530;5.050;2024-03-06T09:23:00;10.38;;;7.22;;
80891;SDS011;70343;51.530;5.050;2024-03-06T09:25:26;10.93;;;8.02;;
80891;SDS011;70343;51.530;5.050;2024-03-06T09:27:52;11.43;;;8.18;;
80891;SDS011;70343;51.530;5.050;2024-03-06T09:30:17;13.75;;;7.30;;
80891;SDS011;70343;51.530;5.050;2024-03-06T09:32:43;10.98;;;6.85;;
80891;SDS011;70343;51.530;5.050;2024-03-06T09:35:09;11.18;;;7.20;;
80891;SDS011;70343;51.530;5.050;2024-03-06T09:37:35;12.80;;;8.18;;
80891;SDS011;70343;51.530;5.050;2024-03-06T09:40:00;9.07;;;7.03;;
80891;SDS011;70343;51.530;5.050;2024-03-06T09:42:26;11.55;;;7.25;;
80891;SDS011;70343;51.530;5.050;2024-03-06T09:44:52;15.25;;;8.25;;
80891;SDS011;70343;51.530;5.050;2024-03-06T09:47:18;11.75;;;8.25;;
80891;SDS011;70343;51.530;5.050;2024-03-06T09:49:53;12.23;;;8.43;;
80891;SDS011;70343;51.530;5.050;2024-03-06T09:52:19;15.80;;;9.98;;
80891;SDS011;70343;51.530;5.050;2024-03-06T09:54:45;12.68;;;8.43;;
80891;SDS011;70343;51.530;5.050;2024-03-06T09:57:10;10.85;;;8.23;;
80891;SDS011;70343;51.530;5.050;2024-03-06T09:59:38;9.93;;;7.75;;
80891;SDS011;70343;51.530;5.050;2024-03-06T10:02:11;12.27;;;8.85;;
80891;SDS011;70343;51.530;5.050;2024-03-06T10:05:04;13.48;;;9.65;;
80891;SDS011;70343;51.530;5.050;2024-03-06T10:07:31;13.88;;;10.13;;
80891;SDS011;70343;51.530;5.050;2024-03-06T10:09:56;12.85;;;9.07;;
80891;SDS011;70343;51.530;5.050;2024-03-06T10:12:22;11.63;;;8.95;;
80891;SDS011;70343;51.530;5.050;2024-03-06T10:14:51;13.18;;;9.07;;
80891;SDS011;70343;51.530;5.050;2024-03-06T10:17:20;10.65;;;6.82;;
80891;SDS011;70343;51.530;5.050;2024-03-06T10:19:48;11.68;;;8.50;;
80891;SDS011;70343;51.530;5.050;2024-03-06T10:22:16;12.65;;;8.95;;
80891;SDS011;70343;51.530;5.050;2024-03-06T10:24:43;9.93;;;6.75;;
80891;SDS011;70343;51.530;5.050;2024-03-06T10:27:13;5.90;;;5.00;;
80891;SDS011;70343;51.530;5.050;2024-03-06T10:29:46;6.80;;;5.20;;
80891;SDS011;70343;51.530;5.050;2024-03-06T10:32:29;10.45;;;5.88;;
80891;SDS011;70343;51.530;5.050;2024-03-06T10:34:55;10.30;;;6.40;;
80891;SDS011;70343;51.530;5.050;2024-03-06T10:37:21;7.80;;;6.18;;
80891;SDS011;70343;51.530;5.050;2024-03-06T10:39:49;8.05;;;5.95;;
80891;SDS011;70343;51.530;5.050;2024-03-06T10:42:19;8.77;;;6.05;;
80891;SDS011;70343;51.530;5.050;2024-03-06T10:44:54;10.70;;;5.57;;
80891;SDS011;70343;51.530;5.050;2024-03-06T10:47:23;6.85;;;5.55;;
80891;SDS011;70343;51.530;5.050;2024-03-06T10:49:51;9.05;;;6.03;;
80891;SDS011;70343;51.530;5.050;2024-03-06T10:52:19;9.23;;;6.43;;
80891;SDS011;70343;51.530;5.050;2024-03-06T10:54:44;6.38;;;4.55;;
80891;SDS011;70343;51.530;5.050;2024-03-06T10:57:12;11.85;;;5.45;;
80891;SDS011;70343;51.530;5.050;2024-03-06T10:59:39;9.10;;;6.03;;
80891;SDS011;70343;51.530;5.050;2024-03-06T11:02:07;6.30;;;4.68;;
80891;SDS011;70343;51.530;5.050;2024-03-06T11:04:34;8.52;;;5.20;;
80891;SDS011;70343;51.530;5.050;2024-03-06T11:07:00;9.32;;;5.75;;
80891;SDS011;70343;51.530;5.050;2024-03-06T11:09:28;8.10;;;5.32;;
80891;SDS011;70343;51.530;5.050;2024-03-06T11:11:57;8.60;;;5.13;;
80891;SDS011;70343;51.530;5.050;2024-03-06T11:14:23;7.55;;;5.63;;
80891;SDS011;70343;51.530;5.050;2024-03-06T11:28:16;7.68;;;5.60;;
80891;SDS011;70343;51.530;5.050;2024-03-06T11:33:43;7.82;;;5.00;;
80891;SDS011;70343;51.530;5.050;2024-03-06T11:36:26;6.22;;;5.10;;
80891;SDS011;70343;51.530;5.050;2024-03-06T11:38:56;10.57;;;7.13;;
80891;SDS011;70343;51.530;5.050;2024-03-06T11:41:23;8.63;;;5.72;;
80891;SDS011;70343;51.530;5.050;2024-03-06T11:43:53;5.13;;;3.72;;
80891;SDS011;70343;51.530;5.050;2024-03-06T11:46:40;5.35;;;3.67;;
80891;SDS011;70343;51.530;5.050;2024-03-06T11:49:07;5.25;;;3.63;;
80891;SDS011;70343;51.530;5.050;2024-03-06T11:51:45;6.25;;;4.40;;
80891;SDS011;70343;51.530;5.050;2024-03-06T11:54:13;6.78;;;5.32;;
80891;SDS011;70343;51.530;5.050;2024-03-06T11:56:43;6.43;;;4.70;;
80891;SDS011;70343;51.530;5.050;2024-03-06T11:59:10;6.97;;;4.43;;
80891;SDS011;70343;51.530;5.050;2024-03-06T12:01:36;7.95;;;4.10;;
80891;SDS011;70343;51.530;5.050;2024-03-06T12:04:03;6.28;;;4.15;;
80891;SDS011;70343;51.530;5.050;2024-03-06T12:06:32;6.93;;;4.78;;
80891;SDS011;70343;51.530;5.050;2024-03-06T12:08:58;5.18;;;3.58;;
80891;SDS011;70343;51.530;5.050;2024-03-06T12:11:24;8.95;;;3.80;;
80891;SDS011;70343;51.530;5.050;2024-03-06T12:13:54;5.00;;;3.60;;
80891;SDS011;70343;51.530;5.050;2024-03-06T12:16:21;7.72;;;4.30;;
80891;SDS011;70343;51.530;5.050;2024-03-06T12:18:46;4.90;;;3.10;;
80891;SDS011;70343;51.530;5.050;2024-03-06T12:21:19;4.60;;;2.80;;
80891;SDS011;70343;51.530;5.050;2024-03-06T12:23:45;4.53;;;3.47;;
80891;SDS011;70343;51.530;5.050;2024-03-06T12:26:10;4.70;;;3.38;;
80891;SDS011;70343;51.530;5.050;2024-03-06T12:28:36;4.22;;;3.40;;
80891;SDS011;70343;51.530;5.050;2024-03-06T12:31:02;4.65;;;3.40;;
80891;SDS011;70343;51.530;5.050;2024-03-06T12:33:29;4.18;;;2.75;;
80891;SDS011;70343;51.530;5.050;2024-03-06T12:36:01;4.20;;;2.92;;
80891;SDS011;70343;51.530;5.050;2024-03-06T12:38:29;4.03;;;2.67;;
80891;SDS011;70343;51.530;5.050;2024-03-06T12:40:54;4.05;;;2.35;;
80891;SDS011;70343;51.530;5.050;2024-03-06T12:43:20;3.13;;;2.30;;
80891;SDS011;70343;51.530;5.050;2024-03-06T12:45:46;4.18;;;2.80;;
80891;SDS011;70343;51.530;5.050;2024-03-06T12:48:11;3.83;;;2.53;;
80891;SDS011;70343;51.530;5.050;2024-03-06T12:50:37;4.07;;;2.35;;
80891;SDS011;70343;51.530;5.050;2024-03-06T12:53:03;4.20;;;2.65;;
80891;SDS011;70343;51.530;5.050;2024-03-06T12:55:30;4.28;;;2.85;;
80891;SDS011;70343;51.530;5.050;2024-03-06T12:57:59;5.43;;;2.95;;
80891;SDS011;70343;51.530;5.050;2024-03-06T13:00:24;5.80;;;2.80;;
80891;SDS011;70343;51.530;5.050;2024-03-06T13:02:50;4.18;;;3.13;;
80891;SDS011;70343;51.530;5.050;2024-03-06T13:05:16;3.78;;;3.03;;
80891;SDS011;70343;51.530;5.050;2024-03-06T13:07:42;4.22;;;2.95;;
80891;SDS011;70343;51.530;5.050;2024-03-06T13:10:09;5.95;;;3.20;;
80891;SDS011;70343;51.530;5.050;2024-03-06T13:12:36;3.33;;;2.78;;
80891;SDS011;70343;51.530;5.050;2024-03-06T13:15:02;3.85;;;3.25;;
80891;SDS011;70343;51.530;5.050;2024-03-06T13:17:29;4.70;;;3.40;;
80891;SDS011;70343;51.530;5.050;2024-03-06T13:19:55;6.75;;;3.80;;
80891;SDS011;70343;51.530;5.050;2024-03-06T13:22:21;3.35;;;2.67;;
80891;SDS011;70343;51.530;5.050;2024-03-06T13:24:47;3.55;;;2.80;;
80891;SDS011;70343;51.530;5.050;2024-03-06T13:27:14;6.68;;;3.20;;
80891;SDS011;70343;51.530;5.050;2024-03-06T13:29:39;3.50;;;3.20;;
80891;SDS011;70343;51.530;5.050;2024-03-06T13:32:06;3.88;;;3.38;;
80891;SDS011;70343;51.530;5.050;2024-03-06T13:34:32;4.05;;;3.22;;
80891;SDS011;70343;51.530;5.050;2024-03-06T13:36:58;5.50;;;3.40;;
80891;SDS011;70343;51.530;5.050;2024-03-06T13:39:24;3.75;;;3.40;;
80891;SDS011;70343;51.530;5.050;2024-03-06T13:41:50;3.50;;;3.20;;
80891;SDS011;70343;51.530;5.050;2024-03-06T13:44:18;4.32;;;3.08;;
80891;SDS011;70343;51.530;5.050;2024-03-06T13:46:44;3.88;;;3.15;;
80891;SDS011;70343;51.530;5.050;2024-03-06T13:49:33;3.70;;;3.40;;
80891;SDS011;70343;51.530;5.050;2024-03-06T13:52:05;3.38;;;3.05;;
80891;SDS011;70343;51.530;5.050;2024-03-06T13:54:32;4.25;;;3.30;;
80891;SDS011;70343;51.530;5.050;2024-03-06T13:56:58;4.45;;;3.08;;
80891;SDS011;70343;51.530;5.050;2024-03-06T13:59:28;3.58;;;2.88;;
80891;SDS011;70343;51.530;5.050;2024-03-06T14:01:55;4.05;;;3.22;;
80891;SDS011;70343;51.530;5.050;2024-03-06T14:04:21;3.30;;;3.00;;
80891;SDS011;70343;51.530;5.050;2024-03-06T14:06:46;3.90;;;2.78;;
80891;SDS011;70343;51.530;5.050;2024-03-06T14:09:13;4.55;;;2.95;;
80891;SDS011;70343;51.530;5.050;2024-03-06T14:11:39;4.38;;;3.22;;
80891;SDS011;70343;51.530;5.050;2024-03-06T14:14:05;3.28;;;2.85;;
80891;SDS011;70343;51.530;5.050;2024-03-06T14:16:31;2.78;;;2.58;;
80891;SDS011;70343;51.530;5.050;2024-03-06T14:18:57;3.30;;;3.00;;
80891;SDS011;70343;51.530;5.050;2024-03-06T14:21:23;3.50;;;2.90;;
80891;SDS011;70343;51.530;5.050;2024-03-06T14:23:49;5.22;;;3.35;;
80891;SDS011;70343;51.530;5.050;2024-03-06T14:26:14;3.70;;;3.33;;
80891;SDS011;70343;51.530;5.050;2024-03-06T14:28:41;4.63;;;3.25;;
80891;SDS011;70343;51.530;5.050;2024-03-06T14:31:07;3.60;;;3.30;;
80891;SDS011;70343;51.530;5.050;2024-03-06T14:33:33;3.47;;;2.83;;
80891;SDS011;70343;51.530;5.050;2024-03-06T14:35:59;4.18;;;3.78;;
80891;SDS011;70343;51.530;5.050;2024-03-06T14:38:25;4.47;;;3.72;;
80891;SDS011;70343;51.530;5.050;2024-03-06T14:40:50;4.95;;;3.45;;
80891;SDS011;70343;51.530;5.050;2024-03-06T14:43:16;5.05;;;3.65;;
80891;SDS011;70343;51.530;5.050;2024-03-06T14:45:42;4.78;;;4.20;;
80891;SDS011;70343;51.530;5.050;2024-03-06T14:48:10;3.97;;;3.63;;